Hood River, Oregon
Current Conditions -  °F | °C
As of 6:39 AM on Wednesday 22 Oct 2014 (Local Time) from K4S2 Reporting Station
Moderate Rain Moderate Rain  
Wind Chill: 10°   Ceiling: 7000
Heat Index: 10°   Visibility: 7mi
Dew Point:   Wind: 0mph
Humidity: 94%   Direction: NA
Pressure: 29.85"   Gusts: NA
Location:  45.71°N, 121.52°W
Report Text: K4S2 221339Z AUTO 00000KT 7SM RA SCT049 OVC070 10/09 A2985 RMK AO2 P0002 SLP124 T01000090
Loading
Personal Weather Stations






























Interactive Weather Map
Tropical Storm Tracking
New forecast layout! Learn more

10-Day Weather Forecast

Advertisements
Track Severe Weather on mobile